Flight Track Log - Related Links

Times and Time Zones

All times are in EDT time to prevent confusion due to time zone crossing. See the N97FG flight status page for this flight to view local times or setup timezone preferences in your user account.

Time Position Orientation Groundspeed Altitude Reporting Facility
EDT Latitude Longitude Course Direction KTS MPH feet Rate Location/Type
Fri 02:20:04 PM 26.5461 -99.1672 48° Northeast 429 494 29,800  Level Houston Center
Fri 02:21:07 PM 26.6264 -99.0672 48° Northeast 431 496 30,500 624 Climbing Houston Center
Fri 02:22:09 PM 26.7064 -98.9675 48° Northeast 432 497 31,100 581 Climbing Houston Center
Fri 02:23:11 PM 26.8003 -98.8842 38° Northeast 433 498 31,700 581 Climbing Houston Center
Fri 02:24:13 PM 26.8994 -98.8092 34° Northeast 433 498 32,300 581 Climbing Houston Center
Fri 02:25:15 PM 27.0183 -98.7153 35° Northeast 436 502 32,900 532 Climbing Houston Center
Fri 02:26:17 PM 27.1172 -98.6386 35° Northeast 436 502 33,400 532 Climbing Houston Center
Fri 02:27:19 PM 27.2169 -98.5611 35° Northeast 438 504 34,000 629 Climbing Houston Center
Fri 02:28:21 PM 27.3156 -98.4831 35° Northeast 438 504 34,700 726 Climbing Houston Center
Fri 02:29:23 PM 27.4342 -98.3914 34° Northeast 435 501 35,500 768 Climbing Houston Center
Fri 02:30:26 PM 27.5328 -98.3142 35° Northeast 434 499 36,300 768 Climbing Houston Center
Fri 02:31:28 PM 27.6303 -98.2364 35° Northeast 432 497 37,100 677 Climbing Houston Center
Fri 02:32:30 PM 27.7289 -98.1597 35° Northeast 432 497 37,700 629 Climbing Houston Center
Fri 02:33:32 PM 27.8272 -98.0828 35° Northeast 432 497 38,400 774 Climbing Houston Center
Fri 02:34:34 PM 27.9458 -97.9878 35° Northeast 436 502 39,300 871 Climbing Houston Center
Fri 02:35:36 PM 28.0436 -97.9111 35° Northeast 430 495 40,200 774 Climbing Houston Center
Fri 02:36:38 PM 28.1408 -97.8342 35° Northeast 428 493 40,900 387 Climbing Houston Center
Fri 02:37:40 PM 28.2347 -97.7619 34° Northeast 433 498 41,000 48 Climbing Houston Center
Fri 02:38:42 PM 28.3561 -97.6647 35° Northeast 447 514 41,000  Level Houston Center
Fri 02:39:45 PM 28.4592 -97.5822 35° Northeast 452 520 41,000  Level Houston Center
Fri 02:40:47 PM 28.5639 -97.4983 35° Northeast 459 528 41,000  Level Houston Center
Fri 02:41:49 PM 28.6686 -97.4131 36° Northeast 461 531 41,000  Level Houston Center
Fri 02:42:51 PM 28.7744 -97.3292 35° Northeast 461 531 41,000 -48 Level Houston Center
Fri 02:43:53 PM 28.8639 -97.2228 46° Northeast 470 541 40,900  Descending Houston Center
Fri 02:44:55 PM 28.9664 -97.0844 50° Northeast 474 545 41,000 48 Climbing Houston Center
Fri 02:45:57 PM 29.0519 -96.9706 49° Northeast 475 547 41,000  Level Houston Center
Fri 02:46:59 PM 29.1417 -96.8628 46° Northeast 473 544 41,000  Level Houston Center
Fri 02:48:01 PM 29.2469 -96.7783 35° Northeast 474 545 41,000  Level Houston Center
Fri 02:49:03 PM 29.3775 -96.6797 33° Northeast 480 552 41,000  Level Houston Center
Fri 02:50:05 PM 29.4850 -96.5972 34° Northeast 472 543 41,000  Level Houston Center
Fri 02:51:07 PM 29.5931 -96.5100 35° Northeast 476 548 41,000  Level Houston Center
Fri 02:52:10 PM 29.7006 -96.4247 35° Northeast 473 544 41,000  Level Houston Center
Fri 02:53:12 PM 29.8094 -96.3369 35° Northeast 478 550 41,000  Level Houston Center
Fri 02:54:14 PM 29.9414 -96.2331 34° Northeast 479 551 41,000  Level Houston Center
Fri 02:55:16 PM 30.0517 -96.1447 35° Northeast 483 556 41,000  Level Houston Center
Fri 02:56:18 PM 30.1642 -96.0511 36° Northeast 487 560 41,000  Level Houston Center
Fri 02:57:20 PM 30.2628 -95.9767 33° Northeast 479 551 41,000  Level Houston Center
Fri 02:58:22 PM 30.3944 -95.8692 35° Northeast 481 554 41,000  Level Houston Center
Fri 02:59:24 PM 30.5031 -95.7783 36° Northeast 479 551 41,000  Level Houston Center
Fri 03:00:26 PM 30.6142 -95.6889 35° Northeast 485 558 41,000  Level Houston Center
Fri 03:01:28 PM 30.7353 -95.5897 35° Northeast 494 568 41,000  Level Houston Center
Fri 03:02:30 PM 30.8447 -95.4994 35° Northeast 483 556 41,000  Level Houston Center
Fri 03:03:32 PM 30.9561 -95.4097 35° Northeast 483 556 41,000  Level Houston Center
Fri 03:04:34 PM 31.0669 -95.3181 35° Northeast 485 558 41,000  Level Houston Center
Fri 03:05:36 PM 31.1778 -95.2258 35° Northeast 487 560 41,000  Level Houston Center
Fri 03:06:38 PM 31.2897 -95.1336 35° Northeast 491 565 41,000  Level Houston Center
Fri 03:07:40 PM 31.4025 -95.0400 35° Northeast 488 562 41,000  Level Houston Center
Fri 03:08:42 PM 31.5383 -94.9258 36° Northeast 492 566 41,000  Level Houston Center
Fri 03:09:44 PM 31.6517 -94.8306 36° Northeast 494 568 41,000  Level Houston Center
Fri 03:10:46 PM 31.7642 -94.7353 36° Northeast 495 570 41,000  Level Houston Center
Fri 03:11:48 PM 31.8758 -94.6411 36° Northeast 493 567 41,000  Level Houston Center
Fri 03:12:50 PM 31.9861 -94.5486 35° Northeast 489 563 41,000  Level Houston Center
Fri 03:13:53 PM 32.0964 -94.4547 36° Northeast 487 560 41,000  Level Houston Center
Fri 03:14:55 PM 32.2056 -94.3633 35° Northeast 483 556 41,000  Level Houston Center
Fri 03:15:57 PM 32.3369 -94.2517 36° Northeast 483 556 41,000  Level Houston Center
Fri 03:17:13 PM 32.4589 -94.1389 38° Northeast 481 554 41,000  Level Fort Worth Center
Fri 03:18:14 PM 32.5650 -94.0464 36° Northeast 481 554 41,000 100 Level Fort Worth Center
Fri 03:19:13 PM 32.6753 -93.9558 35° Northeast 476 548 41,200 353 Climbing Fort Worth Center
Fri 03:20:13 PM 32.7814 -93.8653 36° Northeast 476 548 41,700 500 Climbing Fort Worth Center
Fri 03:21:13 PM 32.8872 -93.7719 37° Northeast 476 548 42,200 500 Climbing Fort Worth Center
Fri 03:22:13 PM 32.9867 -93.6811 37° Northeast 470 541 42,700 400 Climbing Fort Worth Center
Fri 03:23:13 PM 33.0925 -93.5900 36° Northeast 465 535 43,000 150 Climbing Fort Worth Center
Fri 03:24:13 PM 33.1961 -93.4986 36° Northeast 465 535 43,000  Level Fort Worth Center
Fri 03:25:13 PM 33.3039 -93.4069 35° Northeast 465 535 43,000  Level Fort Worth Center
Fri 03:26:13 PM 33.4094 -93.3150 36° Northeast 465 535 43,000  Level Fort Worth Center
Fri 03:27:13 PM 33.5169 -93.2228 36° Northeast 465 535 43,000  Level Fort Worth Center
Fri 03:28:42 PM 33.6861 -93.0758 36° Northeast 464 534 43,000  Level Memphis Center
Fri 03:29:42 PM 33.7947 -92.9817 36° Northeast 469 540 43,000  Level Memphis Center
Fri 03:30:42 PM 33.9008 -92.8872 36° Northeast 469 540 43,000  Level Memphis Center
Fri 03:31:42 PM 34.0092 -92.7903 37° Northeast 469 540 43,000  Level Memphis Center
Fri 03:32:42 PM 34.1175 -92.6956 36° Northeast 469 540 43,000  Level Memphis Center
Fri 03:33:42 PM 34.2175 -92.5978 39° Northeast 469 540 43,000  Level Memphis Center
Fri 03:34:42 PM 34.3256 -92.5000 37° Northeast 469 540 43,000  Level Memphis Center
Fri 03:35:42 PM 34.4336 -92.4019 37° Northeast 469 540 43,000  Level Memphis Center
Fri 03:36:42 PM 34.5394 -92.3086 36° Northeast 474 545 43,000  Level Memphis Center
Fri 03:37:42 PM 34.6453 -92.2100 37° Northeast 474 545 43,000  Level Memphis Center
Fri 03:38:42 PM 34.7408 -92.0983 44° Northeast 468 539 43,000  Level Memphis Center
Fri 03:39:42 PM 34.8278 -91.9889 46° Northeast 477 549 43,000  Level Memphis Center
Fri 03:40:42 PM 34.9231 -91.8692 46° Northeast 482 555 43,000  Level Memphis Center
Fri 03:41:42 PM 35.0122 -91.7517 47° Northeast 482 555 43,000  Level Memphis Center
Fri 03:42:42 PM 35.1053 -91.6314 47° Northeast 477 549 43,000  Level Memphis Center
Fri 03:43:42 PM 35.1981 -91.5108 47° Northeast 477 549 43,000  Level Memphis Center
Fri 03:44:43 PM 35.2972 -91.3900 45° Northeast 482 555 43,000  Level Memphis Center
Fri 03:45:42 PM 35.3878 -91.2661 48° Northeast 487 560 43,000  Level Memphis Center
Fri 03:46:42 PM 35.4911 -91.1372 45° Northeast 487 560 43,000  Level Memphis Center
Fri 03:47:42 PM 35.5856 -91.0131 47° Northeast 487 560 43,000  Level Memphis Center
Fri 03:48:42 PM 35.6800 -90.8861 47° Northeast 493 567 43,000  Level Memphis Center
Fri 03:49:42 PM 35.7658 -90.7639 49° Northeast 483 556 43,000  Level Memphis Center
Fri 03:50:42 PM 35.8603 -90.6386 47° Northeast 489 563 43,000  Level Memphis Center
Fri 03:51:42 PM 35.9542 -90.5158 47° Northeast 489 563 43,000  Level Memphis Center
Fri 03:52:42 PM 36.0481 -90.3928 47° Northeast 489 563 43,000  Level Memphis Center
Fri 03:53:42 PM 36.1439 -90.2644 47° Northeast 489 563 43,000  Level Memphis Center
Fri 03:54:42 PM 36.2375 -90.1383 47° Northeast 489 563 43,000  Level Memphis Center
Fri 03:55:42 PM 36.3208 -90.0272 47° Northeast 489 563 43,000  Level Memphis Center
Fri 03:56:42 PM 36.4161 -89.8978 48° Northeast 489 563 43,000  Level Memphis Center
Fri 03:57:42 PM 36.5117 -89.7708 47° Northeast 494 568 43,000  Level Memphis Center
Fri 03:58:42 PM 36.6089 -89.6383 48° Northeast 500 575 43,000  Level Memphis Center
Fri 03:59:42 PM 36.7039 -89.5081 48° Northeast 505 581 43,000  Level Memphis Center
Fri 04:00:42 PM 36.7989 -89.3750 48° Northeast 505 581 43,000  Level Memphis Center
Fri 04:01:42 PM 36.8914 -89.2442 49° Northeast 505 581 43,000  Level Memphis Center
Fri 04:02:42 PM 36.9881 -89.1128 47° Northeast 505 581 43,000  Level Memphis Center
Fri 04:03:42 PM 37.0825 -88.9789 48° Northeast 505 581 43,000  Level Memphis Center
Fri 04:04:42 PM 37.1789 -88.8469 47° Northeast 505 581 43,000  Level Memphis Center
Fri 04:06:15 PM 37.3272 -88.6261 50° Northeast 517 595 43,000  Level Indianapolis Center
Fri 04:07:18 PM 37.4169 -88.5019 48° Northeast 515 593 43,000  Level Indianapolis Center
Fri 04:08:20 PM 37.5175 -88.3561 49° Northeast 514 592 43,000  Level Indianapolis Center
Fri 04:09:22 PM 37.6228 -88.2058 48° Northeast 512 589 43,000  Level Indianapolis Center
Fri 04:10:24 PM 37.7164 -88.0714 49° Northeast 506 582 43,000  Level Indianapolis Center
Fri 04:11:26 PM 37.8156 -87.9256 49° Northeast 505 581 43,000  Level Indianapolis Center
Fri 04:12:28 PM 37.9078 -87.7928 49° Northeast 501 577 43,000  Level Indianapolis Center
Fri 04:13:30 PM 38.0219 -87.6956 34° Northeast 491 565 43,000  Level Indianapolis Center
Fri 04:14:32 PM 38.1408 -87.6103 29° Northeast 488 562 43,000  Level Indianapolis Center
Fri 04:15:34 PM 38.2597 -87.5244 30° Northeast 488 562 43,000  Level Indianapolis Center
Fri 04:16:36 PM 38.3792 -87.4369 30° Northeast 486 559 43,000  Level Indianapolis Center
Fri 04:17:38 PM 38.4994 -87.3489 30° Northeast 489 563 43,000  Level Indianapolis Center
Fri 04:18:40 PM 38.6192 -87.2608 30° Northeast 489 563 43,000  Level Indianapolis Center
Fri 04:19:42 PM 38.7378 -87.1736 30° Northeast 486 559 43,000  Level Indianapolis Center
Fri 04:20:44 PM 38.8564 -87.0861 30° Northeast 488 562 43,000  Level Indianapolis Center
Fri 04:21:46 PM 38.9975 -86.9828 30° Northeast 486 559 43,000  Level Indianapolis Center
Fri 04:22:48 PM 39.1139 -86.8964 30° Northeast 481 554 43,000 -145 Level Indianapolis Center
Fri 04:23:50 PM 39.2308 -86.8083 30° Northeast 479 551 42,700 -823 Descending Indianapolis Center
Fri 04:24:52 PM 39.3469 -86.7217 30° Northeast 481 554 41,300 -1,355 Descending Indianapolis Center
Fri 04:25:54 PM 39.4669 -86.6314 30° Northeast 490 564 39,900 -1,248 Descending Indianapolis Center
Fri 04:26:57 PM 39.5767 -86.5242 37° Northeast 499 574 38,700 -1,248 Descending Indianapolis Center
Fri 04:27:59 PM 39.6764 -86.3989 44° Northeast 500 575 37,300 -2,226 Descending Indianapolis Center
Fri 04:29:01 PM 39.8158 -86.2717 35° Northeast 502 578 34,100 -2,081 Descending Indianapolis Center
Fri 04:30:03 PM 39.9147 -86.1811 35° Northeast 502 578 33,000 -532 Descending Indianapolis Center
Fri 04:31:05 PM 40.0511 -86.0561 35° Northeast 501 577 33,000  Level Indianapolis Center
Fri 04:32:07 PM 40.1667 -85.9506 35° Northeast 507 583 33,000 -438 Level Indianapolis Center
Fri 04:32:41 PM 40.2350 -85.8858 36° Northeast 504 580 32,300 -1,438 Descending Chicago Center
Fri 04:33:43 PM 40.3489 -85.7808 35° Northeast 503 579 30,700 -1,500 Descending Chicago Center
Fri 04:34:45 PM 40.4639 -85.6750 35° Northeast 504 580 29,200 -1,500 Descending Chicago Center
Fri 04:35:47 PM 40.5781 -85.5675 36° Northeast 506 582 27,600 -1,645 Descending Chicago Center
Fri 04:36:49 PM 40.6894 -85.4622 36° Northeast 501 577 25,800 -1,839 Descending Chicago Center
Fri 04:37:51 PM 40.8028 -85.3567 35° Northeast 499 574 23,800 -2,129 Descending Chicago Center
Fri 04:38:53 PM 40.9403 -85.2217 37° Northeast 513 590 21,400 -1,355 Descending Chicago Center
Fri 04:39:55 PM 41.0628 -85.1533 23° Northeast 490 564 21,000 -194 Descending Chicago Center
Fri 04:40:57 PM 41.1864 -85.1078 16° North 471 542 21,000  Level Chicago Center
Fri 04:41:59 PM 41.3078 -85.0597 17° North 462 532 21,000  Level Chicago Center
Fri 04:43:01 PM 41.4292 -85.0136 16° North 459 528 21,000 -629 Level Chicago Center
Fri 04:44:03 PM 41.5719 -84.9578 16° North 451 519 19,700 -1,548 Descending Chicago Center
Fri 04:45:05 PM 41.6914 -84.9100 17° North 452 520 17,800 -1,790 Descending Chicago Center
Fri 04:46:07 PM 41.7672 -84.7781 52° Northeast 456 525 16,000 -1,728 Descending Chicago Center
Fri 04:47:10 PM 41.8167 -84.6250 67° East 451 519 14,200 -1,778 Descending Chicago Center
Fri 04:47:55 PM 41.8575 -84.5061 65° Northeast 423 487 12,800 -1,771 Descending Cleveland Center
Fri 04:48:55 PM 41.9039 -84.3611 67° East 423 487 11,100 -992 Descending Cleveland Center
Fri 04:49:56 PM 41.9464 -84.2072 70° East 413 475 10,800 -550 Descending Cleveland Center
Fri 04:50:55 PM 41.9939 -84.0897 61° Northeast 377 434 10,000 -366 Descending Cleveland Center
Fri 04:52:07 PM 42.1125 -84.0292 21° North 405 466 10,000  Level Cleveland Center
Fri 04:52:55 PM 42.1914 -83.9689 30° Northeast 367 422 10,000 -385 Level Cleveland Center
Fri 04:53:56 PM 42.2522 -83.8878 45° Northeast 349 402 9,300 -1,488 Descending Cleveland Center
Fri 04:55:04 PM 42.3169 -83.8069 43° Northeast 276 318 6,800 -1,586 Descending Cleveland Center
Fri 04:56:16 PM 42.3775 -83.7286 44° Northeast 229 264 5,600 -850 Descending Cleveland Center
Fri 04:57:11 PM 42.4164 -83.6769 44° Northeast 192 221 5,000 -310 Descending Cleveland Center
Fri 04:58:12 PM 42.4575 -83.6256 43° Northeast 198 228 5,000 -246 Level Cleveland Center
Fri 04:59:13 PM 42.5006 -83.5714 43° Northeast 204 235 4,500 -738 Descending Cleveland Center
Fri 05:00:14 PM 42.5397 -83.5139 47° Northeast 201 231 3,500 -776 Descending Cleveland Center
Fri 05:01:09 PM 42.5783 -83.4706 40° Northeast 200 230 3,000 -259 Descending Cleveland Center
Fri 05:02:10 PM 42.5903 -83.4008 77° East 179 206 3,000  Level Cleveland Center
Fri 05:03:11 PM 42.5942 -83.3331 86° East 178 205 3,000  Level Cleveland Center
Fri 05:04:12 PM 42.6403 -83.3211 11° North 182 209 3,000 -492 Level Cleveland Center
Fri 05:05:13 PM 42.6664 -83.3561 315° West 140 161 2,000 -984 Descending Cleveland Center

Login

Don't have an account? Register now (free) for customized features, flight alerts, and more!